Time;durP1;ratioP1;P1;durP2;ratioP2;P2;SDS_P1;SDS_P2;PMS_P1;PMS_P2;Temp;Humidity;BMP_temperature;BMP_pressure;BME280_temperature;BME280_humidity;BME280_pressure;Samples;Min_cycle;Max_cycle;Signal;HPM_P1;HPM_P2
2022/09/18 00:01:08;;;;;;;7.63;1.33;;;10.80;99.90;;;;;;4978124;28;20467;-67
2022/09/18 00:03:34;;;;;;;9.65;1.77;;;10.80;99.90;;;;;;4978021;28;20142;-67
2022/09/18 00:06:06;;;;;;;12.70;1.60;;;10.80;99.90;;;;;;4977888;28;20121;-67
2022/09/18 00:08:32;;;;;;;12.13;1.87;;;10.80;99.90;;;;;;4978058;28;20042;-67
2022/09/18 00:10:57;;;;;;;12.93;1.50;;;10.80;99.90;;;;;;4961790;28;20053;-67
2022/09/18 00:13:23;;;;;;;11.07;1.45;;;10.70;99.90;;;;;;4978107;28;20108;-67
2022/09/18 00:15:55;;;;;;;9.05;1.50;;;10.80;99.90;;;;;;4977804;28;20406;-67
2022/09/18 00:18:20;;;;;;;12.43;2.00;;;10.80;99.90;;;;;;4977517;28;20434;-67
2022/09/18 00:20:46;;;;;;;11.98;1.52;;;10.70;99.90;;;;;;4978028;28;20150;-67
2022/09/18 00:23:11;;;;;;;13.70;1.67;;;10.70;99.90;;;;;;4961616;28;20446;-67
2022/09/18 00:25:37;;;;;;;12.52;1.48;;;10.70;99.90;;;;;;4977592;28;20035;-67
2022/09/18 00:28:02;;;;;;;9.30;1.80;;;10.70;99.90;;;;;;4977583;28;20045;-67
2022/09/18 00:30:28;;;;;;;12.48;1.75;;;10.70;99.90;;;;;;4977898;28;20041;-67
2022/09/18 00:32:53;;;;;;;8.80;1.88;;;10.70;99.90;;;;;;4977521;28;20503;-67
2022/09/18 00:35:19;;;;;;;12.43;2.03;;;10.70;99.90;;;;;;4977518;28;20046;-67
2022/09/18 00:37:44;;;;;;;14.30;2.05;;;10.60;99.90;;;;;;4977392;28;20080;-67
2022/09/18 00:40:10;;;;;;;11.05;1.92;;;10.70;99.90;;;;;;4977436;28;20129;-67
2022/09/18 00:42:36;;;;;;;13.18;1.90;;;10.70;99.90;;;;;;4977232;28;20514;-67
2022/09/18 00:45:02;;;;;;;13.82;1.92;;;10.70;99.90;;;;;;4977305;28;20042;-67
2022/09/18 00:47:44;;;;;;;15.95;1.63;;;10.70;99.90;;;;;;4977163;28;20073;-67
2022/09/18 00:50:23;;;;;;;12.25;1.92;;;10.70;99.90;;;;;;4977515;28;20042;-67
2022/09/18 00:53:00;;;;;;;10.18;1.58;;;10.70;99.90;;;;;;4977200;28;20046;-67
2022/09/18 00:55:37;;;;;;;18.75;2.45;;;10.70;99.90;;;;;;4977394;28;20061;-67
2022/09/18 00:58:04;;;;;;;11.77;1.95;;;10.70;99.90;;;;;;4977296;28;20046;-67
2022/09/18 01:00:30;;;;;;;9.02;1.80;;;10.70;99.90;;;;;;4977040;28;20414;-67
2022/09/18 01:02:57;;;;;;;10.57;2.13;;;10.70;99.90;;;;;;4976913;28;20035;-67
2022/09/18 01:05:58;;;;;;;11.73;1.60;;;10.70;99.90;;;;;;4976944;28;20043;-67
2022/09/18 01:08:42;;;;;;;13.88;1.60;;;10.70;99.90;;;;;;4976893;28;20121;-67
2022/09/18 01:11:35;;;;;;;10.93;2.00;;;10.70;99.90;;;;;;4960835;28;20042;-67
2022/09/18 01:14:30;;;;;;;9.23;1.50;;;10.70;99.90;;;;;;4977104;28;20077;-67
2022/09/18 01:17:11;;;;;;;14.70;1.90;;;10.60;99.90;;;;;;4940143;28;20046;-67
2022/09/18 01:20:12;;;;;;;9.32;1.75;;;10.70;99.90;;;;;;4960666;28;20491;-67
2022/09/18 01:23:03;;;;;;;13.55;1.75;;;10.70;99.90;;;;;;4976064;28;20062;-67
2022/09/18 01:25:34;;;;;;;9.73;2.25;;;10.70;99.90;;;;;;4976616;28;20127;-67
2022/09/18 01:28:25;;;;;;;12.07;2.47;;;10.70;99.90;;;;;;4993968;28;20030;-67
2022/09/18 01:30:56;;;;;;;9.23;1.77;;;10.80;99.90;;;;;;4976535;28;20103;-67
2022/09/18 01:33:29;;;;;;;10.35;1.65;;;10.80;99.90;;;;;;4976532;28;20045;-67
2022/09/18 01:35:59;;;;;;;8.40;1.38;;;10.80;99.90;;;;;;4976355;28;20403;-67
2022/09/18 01:38:39;;;;;;;10.32;1.55;;;10.90;99.90;;;;;;4976366;28;20042;-67
2022/09/18 01:41:15;;;;;;;7.75;1.23;;;10.90;99.90;;;;;;4976419;28;20034;-67
2022/09/18 01:43:43;;;;;;;10.50;1.95;;;10.90;99.90;;;;;;4976671;28;20121;-67
2022/09/18 01:46:13;;;;;;;9.98;1.48;;;10.90;99.90;;;;;;4976270;28;20053;-67
2022/09/18 01:48:52;;;;;;;12.02;2.08;;;11.00;99.90;;;;;;4976300;28;20068;-67
2022/09/18 01:51:22;;;;;;;7.90;1.25;;;11.00;99.90;;;;;;4976385;28;20077;-67
2022/09/18 01:53:53;;;;;;;10.05;1.38;;;11.00;99.90;;;;;;4975795;28;20075;-67
2022/09/18 01:56:22;;;;;;;12.32;1.92;;;11.00;99.90;;;;;;4976549;28;20121;-67
2022/09/18 01:58:51;;;;;;;10.65;1.45;;;11.00;99.90;;;;;;4976317;28;20408;-67
2022/09/18 02:01:19;;;;;;;9.07;1.42;;;11.10;99.90;;;;;;4976313;28;20038;-67
2022/09/18 02:03:52;;;;;;;6.70;1.10;;;11.10;99.90;;;;;;4976163;28;20413;-67
2022/09/18 02:06:27;;;;;;;10.35;1.65;;;11.10;99.90;;;;;;4976070;28;20450;-67
2022/09/18 02:08:55;;;;;;;10.18;1.90;;;11.10;99.90;;;;;;4976115;28;20118;-67
2022/09/18 02:11:22;;;;;;;9.60;1.60;;;11.00;99.90;;;;;;4976011;28;20043;-67
2022/09/18 02:13:53;;;;;;;13.90;2.53;;;11.10;99.90;;;;;;4976343;28;20042;-67
2022/09/18 02:16:26;;;;;;;9.80;1.63;;;11.10;99.90;;;;;;4993337;28;20034;-67
2022/09/18 02:18:55;;;;;;;8.10;1.65;;;11.10;99.90;;;;;;4976212;28;20042;-67
2022/09/18 02:21:27;;;;;;;10.48;1.60;;;11.10;99.90;;;;;;4960284;28;20060;-67
2022/09/18 02:23:59;;;;;;;9.15;1.42;;;11.10;99.90;;;;;;4975991;28;20450;-67
2022/09/18 02:26:25;;;;;;;10.77;1.73;;;11.10;99.90;;;;;;4959918;28;20042;-67
2022/09/18 02:28:51;;;;;;;8.13;1.60;;;11.10;99.90;;;;;;4975983;28;20098;-67
2022/09/18 02:31:17;;;;;;;11.27;2.55;;;11.10;99.90;;;;;;4975888;28;20054;-67
2022/09/18 02:33:43;;;;;;;10.15;1.48;;;11.20;99.90;;;;;;4993345;28;20070;-67
2022/09/18 02:36:49;;;;;;;11.63;1.92;;;11.20;99.90;;;;;;4976069;28;20125;-67
2022/09/18 02:39:46;;;;;;;11.70;1.70;;;11.20;99.90;;;;;;4975730;28;20505;-67
2022/09/18 02:42:42;;;;;;;9.70;1.50;;;11.20;99.90;;;;;;4975896;28;20049;-67
2022/09/18 02:45:27;;;;;;;7.63;1.08;;;11.20;99.90;;;;;;4975783;28;20038;-67
2022/09/18 02:48:08;;;;;;;15.75;2.28;;;11.20;99.90;;;;;;4959886;28;20042;-67
2022/09/18 02:50:39;;;;;;;13.68;2.08;;;11.20;99.90;;;;;;4975717;28;20038;-67
2022/09/18 02:53:34;;;;;;;9.40;1.45;;;11.20;99.90;;;;;;4975791;28;20038;-67
2022/09/18 02:56:13;;;;;;;10.80;1.42;;;11.20;99.90;;;;;;4975662;28;20085;-67
2022/09/18 02:58:45;;;;;;;10.05;1.40;;;11.20;99.90;;;;;;4975860;28;20081;-67
2022/09/18 03:01:12;;;;;;;13.68;1.48;;;11.10;99.90;;;;;;4975953;28;20112;-67
2022/09/18 03:03:38;;;;;;;11.93;1.60;;;11.20;99.90;;;;;;4975649;28;20046;-67
2022/09/18 03:06:08;;;;;;;14.88;1.73;;;11.10;99.90;;;;;;4975807;28;20042;-67
2022/09/18 03:08:34;;;;;;;10.10;1.42;;;11.10;99.90;;;;;;4962965;28;20038;-67
2022/09/18 03:10:59;;;;;;;8.35;1.20;;;11.10;99.90;;;;;;4978996;28;20097;-67
2022/09/18 03:13:25;;;;;;;13.27;1.55;;;11.10;99.90;;;;;;4978980;28;20050;-67
2022/09/18 03:15:50;;;;;;;10.60;1.60;;;11.10;99.90;;;;;;4978909;28;20192;-67
2022/09/18 03:18:16;;;;;;;10.85;1.85;;;11.20;99.90;;;;;;4978766;28;20096;-67
2022/09/18 03:20:42;;;;;;;11.65;1.55;;;11.20;99.90;;;;;;4979152;28;20038;-67
2022/09/18 03:23:09;;;;;;;7.93;1.65;;;11.20;99.90;;;;;;4978747;28;20054;-67
2022/09/18 03:25:35;;;;;;;10.25;1.50;;;11.20;99.90;;;;;;4962694;28;20038;-67
2022/09/18 03:28:01;;;;;;;11.65;1.63;;;11.20;99.90;;;;;;4996342;28;20038;-67
2022/09/18 03:30:26;;;;;;;11.13;1.58;;;11.20;99.90;;;;;;4996117;28;20474;-67
2022/09/18 03:32:52;;;;;;;8.73;1.48;;;11.30;99.90;;;;;;4962510;28;20078;-67
2022/09/18 03:35:18;;;;;;;12.27;1.85;;;11.30;99.90;;;;;;4978630;28;20049;-67
2022/09/18 03:37:44;;;;;;;9.48;1.33;;;11.30;99.90;;;;;;4978770;28;20057;-67
2022/09/18 03:40:09;;;;;;;6.05;1.50;;;11.30;99.90;;;;;;4978485;28;20507;-67
2022/09/18 03:42:35;;;;;;;11.10;1.27;;;11.30;99.90;;;;;;4978505;28;20518;-67
2022/09/18 03:45:00;;;;;;;6.32;1.60;;;11.30;99.90;;;;;;4978458;28;20042;-67
2022/09/18 03:47:26;;;;;;;7.68;1.30;;;11.30;99.90;;;;;;4978353;28;20061;-67
2022/09/18 03:49:52;;;;;;;10.27;1.25;;;11.30;99.90;;;;;;4978354;28;20042;-67
2022/09/18 03:52:18;;;;;;;9.10;1.30;;;11.30;99.90;;;;;;4978311;28;20085;-67
2022/09/18 03:54:43;;;;;;;11.88;1.52;;;11.30;99.90;;;;;;4978241;28;20129;-67
2022/09/18 03:57:09;;;;;;;8.60;1.33;;;11.30;99.90;;;;;;4978145;28;20068;-67
2022/09/18 03:59:35;;;;;;;7.80;1.40;;;11.30;99.90;;;;;;4962023;28;20038;-67
2022/09/18 04:02:00;;;;;;;8.93;1.38;;;11.20;99.90;;;;;;4978394;28;20049;-67
2022/09/18 04:04:27;;;;;;;8.38;1.45;;;11.20;99.90;;;;;;4962027;28;20462;-67
2022/09/18 04:06:52;;;;;;;9.73;1.40;;;11.20;99.90;;;;;;4977949;28;20034;-67
2022/09/18 04:09:18;;;;;;;10.23;1.50;;;11.20;99.90;;;;;;4978267;28;20137;-67
2022/09/18 04:11:43;;;;;;;7.22;1.25;;;11.20;99.90;;;;;;4961933;28;20046;-67
2022/09/18 04:14:09;;;;;;;8.60;1.42;;;11.20;99.90;;;;;;4977885;28;20046;-67
2022/09/18 04:16:35;;;;;;;10.52;1.50;;;11.10;99.90;;;;;;4977485;28;20076;-67
2022/09/18 04:19:00;;;;;;;11.02;1.42;;;11.10;99.90;;;;;;4977393;28;20057;-67
2022/09/18 04:21:26;;;;;;;7.78;1.20;;;11.10;99.90;;;;;;4977960;28;20034;-67
2022/09/18 04:23:51;;;;;;;6.97;1.20;;;11.10;99.90;;;;;;4977702;28;20081;-67
2022/09/18 04:26:17;;;;;;;10.77;1.27;;;11.10;99.90;;;;;;4977809;28;20042;-67
2022/09/18 04:28:42;;;;;;;8.63;1.65;;;11.10;99.90;;;;;;4977584;28;20078;-67
2022/09/18 04:31:08;;;;;;;7.32;1.13;;;11.10;99.90;;;;;;4977784;28;20050;-67
2022/09/18 04:33:34;;;;;;;8.45;1.23;;;11.10;99.90;;;;;;4977495;28;20419;-67
2022/09/18 04:35:59;;;;;;;6.93;1.02;;;11.00;99.90;;;;;;4977640;28;20070;-67
2022/09/18 04:38:28;;;;;;;8.38;1.20;;;11.10;99.90;;;;;;4977640;28;20046;-67
2022/09/18 04:40:58;;;;;;;6.95;1.10;;;11.10;99.90;;;;;;4977394;28;20542;-67
2022/09/18 04:43:24;;;;;;;12.10;1.25;;;11.10;99.90;;;;;;4977296;28;20045;-67
2022/09/18 04:45:50;;;;;;;6.70;1.02;;;11.10;99.90;;;;;;4961071;28;20060;-68
2022/09/18 04:48:17;;;;;;;7.50;1.20;;;11.10;99.90;;;;;;4977241;28;20121;-67
2022/09/18 04:50:44;;;;;;;7.07;1.17;;;11.10;99.90;;;;;;4977162;28;20183;-67
2022/09/18 04:53:10;;;;;;;6.57;1.40;;;11.20;99.90;;;;;;4977322;28;20121;-67
2022/09/18 04:55:35;;;;;;;14.95;1.80;;;11.20;99.90;;;;;;4977049;28;20121;-67
2022/09/18 04:58:01;;;;;;;7.53;1.10;;;11.20;99.90;;;;;;4977000;28;20039;-67
2022/09/18 05:00:27;;;;;;;6.50;1.52;;;11.20;99.90;;;;;;4976945;28;20064;-67
2022/09/18 05:02:53;;;;;;;8.70;1.20;;;11.20;99.90;;;;;;4976978;28;20046;-67
2022/09/18 05:05:18;;;;;;;7.15;1.20;;;11.20;99.90;;;;;;4994342;28;20038;-67
2022/09/18 05:07:44;;;;;;;4.60;0.80;;;11.20;99.90;;;;;;4994248;28;20038;-67
2022/09/18 05:10:10;;;;;;;6.68;0.95;;;11.20;99.90;;;;;;4977085;28;20050;-67
2022/09/18 05:12:39;;;;;;;8.13;0.93;;;11.20;99.90;;;;;;4977023;28;20053;-68
2022/09/18 05:15:05;;;;;;;7.15;1.30;;;11.20;99.90;;;;;;4977067;28;20046;-67
2022/09/18 05:17:31;;;;;;;5.95;1.00;;;11.20;99.90;;;;;;4976473;28;20129;-67
2022/09/18 05:19:57;;;;;;;6.30;1.30;;;11.20;99.90;;;;;;4976596;28;20053;-67
2022/09/18 05:22:23;;;;;;;6.47;0.88;;;11.20;99.90;;;;;;4976917;28;20047;-67
2022/09/18 05:24:48;;;;;;;9.60;1.08;;;11.20;99.90;;;;;;4976608;28;20500;-67
2022/09/18 05:27:14;;;;;;;6.45;1.02;;;11.20;99.90;;;;;;4993997;28;20049;-67
2022/09/18 05:29:39;;;;;;;6.90;1.13;;;11.10;99.90;;;;;;4975828;28;20046;-67
2022/09/18 05:32:06;;;;;;;6.30;1.30;;;11.10;99.90;;;;;;4976533;28;20078;-67
2022/09/18 05:34:31;;;;;;;9.90;1.33;;;11.10;99.90;;;;;;4976446;28;20499;-67
2022/09/18 05:36:57;;;;;;;5.25;1.02;;;11.10;99.90;;;;;;4976442;28;20053;-67
2022/09/18 05:39:22;;;;;;;7.65;1.00;;;11.00;99.90;;;;;;4976397;28;20042;-67
2022/09/18 05:41:51;;;;;;;8.57;1.00;;;11.10;99.90;;;;;;4976378;28;20039;-67
2022/09/18 05:44:17;;;;;;;9.00;1.25;;;11.00;99.90;;;;;;4976345;28;20038;-67
2022/09/18 05:46:45;;;;;;;5.35;1.00;;;11.00;99.90;;;;;;4976273;28;20431;-67
2022/09/18 05:49:10;;;;;;;5.30;0.73;;;11.00;99.90;;;;;;4976588;28;20050;-67
2022/09/18 05:51:36;;;;;;;6.65;1.20;;;11.00;99.90;;;;;;4976309;28;20046;-66
2022/09/18 05:54:02;;;;;;;6.95;0.95;;;11.00;99.90;;;;;;4976355;28;20046;-67
2022/09/18 05:56:27;;;;;;;7.07;1.10;;;11.00;99.90;;;;;;4976143;28;20058;-67
2022/09/18 05:58:53;;;;;;;8.10;1.42;;;11.00;99.90;;;;;;4976424;28;20074;-66
2022/09/18 06:01:19;;;;;;;10.20;1.20;;;11.00;99.90;;;;;;4976488;28;20392;-67
2022/09/18 06:03:47;;;;;;;6.43;0.88;;;11.00;99.90;;;;;;4976215;28;20492;-66
2022/09/18 06:06:13;;;;;;;10.38;1.10;;;11.00;99.90;;;;;;4976407;28;20046;-67
2022/09/18 06:08:38;;;;;;;4.18;0.88;;;11.00;99.90;;;;;;4994126;28;20372;-67
2022/09/18 06:11:04;;;;;;;8.70;1.10;;;11.00;99.90;;;;;;4960095;28;20049;-67
2022/09/18 06:13:30;;;;;;;7.05;0.90;;;11.00;99.90;;;;;;4960058;28;20129;-67
2022/09/18 06:15:57;;;;;;;9.88;0.80;;;11.10;99.90;;;;;;4976116;28;20117;-67
2022/09/18 06:18:23;;;;;;;7.15;0.80;;;11.00;99.90;;;;;;4975962;28;20515;-67
2022/09/18 06:20:56;;;;;;;6.13;0.80;;;11.10;99.90;;;;;;4976043;28;20053;-67
2022/09/18 06:23:23;;;;;;;8.27;1.48;;;11.10;99.90;;;;;;4976096;28;20042;-67
2022/09/18 06:25:59;;;;;;;5.90;0.80;;;11.10;99.90;;;;;;4993438;28;20054;-66
2022/09/18 06:28:25;;;;;;;6.18;1.15;;;11.10;99.90;;;;;;4994034;28;20100;-66
2022/09/18 06:30:51;;;;;;;6.97;0.90;;;11.10;99.90;;;;;;4975955;28;20511;-66
2022/09/18 06:33:17;;;;;;;6.97;1.10;;;11.10;99.90;;;;;;4975923;28;20042;-66
2022/09/18 06:35:43;;;;;;;9.90;1.20;;;11.10;99.90;;;;;;4975995;28;20045;-66
2022/09/18 06:38:09;;;;;;;6.25;0.98;;;11.10;99.90;;;;;;4975857;28;20053;-67
2022/09/18 06:40:35;;;;;;;8.60;1.73;;;11.20;99.90;;;;;;4977249;28;20130;-67
2022/09/18 06:43:01;;;;;;;7.60;1.30;;;11.10;99.90;;;;;;4979605;28;20117;-67
2022/09/18 06:45:28;;;;;;;8.23;1.20;;;11.10;99.90;;;;;;4979725;28;20554;-67
2022/09/18 06:47:54;;;;;;;7.07;1.20;;;11.10;99.90;;;;;;4979702;28;20042;-66
2022/09/18 06:50:23;;;;;;;6.78;0.93;;;11.10;99.90;;;;;;4979498;28;20396;-67
2022/09/18 06:52:50;;;;;;;8.88;1.23;;;11.20;99.90;;;;;;4979701;28;20050;-67
2022/09/18 06:55:17;;;;;;;6.30;1.20;;;11.20;99.90;;;;;;4979393;28;20070;-67
2022/09/18 06:57:51;;;;;;;9.32;1.70;;;11.20;99.90;;;;;;4979216;28;20387;-66
2022/09/18 07:00:17;;;;;;;3.55;0.75;;;11.20;99.90;;;;;;4979266;28;20108;-66
2022/09/18 07:02:42;;;;;;;8.55;1.30;;;11.20;99.90;;;;;;4979211;28;20073;-67
2022/09/18 07:05:08;;;;;;;8.27;0.90;;;11.30;99.90;;;;;;4979170;28;20044;-67
2022/09/18 07:07:33;;;;;;;5.70;1.10;;;11.30;99.90;;;;;;4979097;28;20108;-67
2022/09/18 07:09:59;;;;;;;7.20;1.15;;;11.30;99.90;;;;;;4979150;28;20038;-67
2022/09/18 07:12:27;;;;;;;7.50;1.00;;;11.30;99.90;;;;;;4979037;28;20100;-67
2022/09/18 07:14:52;;;;;;;8.02;1.30;;;11.30;99.90;;;;;;4978960;28;20042;-67
2022/09/18 07:17:18;;;;;;;7.18;1.15;;;11.30;99.90;;;;;;4979066;28;20096;-67
2022/09/18 07:19:44;;;;;;;7.55;1.08;;;11.40;99.90;;;;;;4978956;28;20046;-67
2022/09/18 07:22:09;;;;;;;7.68;1.17;;;11.30;99.90;;;;;;4978886;28;20039;-67
2022/09/18 07:24:35;;;;;;;9.57;1.20;;;11.30;99.90;;;;;;4978863;28;20042;-67
2022/09/18 07:27:01;;;;;;;6.53;1.00;;;11.30;99.90;;;;;;4978719;28;20097;-67
2022/09/18 07:29:27;;;;;;;11.40;1.05;;;11.40;99.90;;;;;;4978744;28;20134;-67
2022/09/18 07:31:52;;;;;;;6.55;1.00;;;11.40;99.90;;;;;;4978726;28;20042;-67
2022/09/18 07:34:18;;;;;;;7.07;1.35;;;11.40;99.90;;;;;;4978654;28;20053;-67
2022/09/18 07:36:43;;;;;;;3.47;0.70;;;11.40;99.90;;;;;;4978800;28;20042;-67
2022/09/18 07:39:09;;;;;;;7.55;1.17;;;11.30;99.90;;;;;;4978485;28;20057;-67
2022/09/18 07:41:35;;;;;;;6.45;1.00;;;11.30;99.90;;;;;;4978553;28;20038;-67
2022/09/18 07:44:01;;;;;;;7.53;1.23;;;11.30;99.90;;;;;;4962485;28;20084;-67
2022/09/18 07:46:27;;;;;;;6.43;1.00;;;11.30;99.90;;;;;;4978384;28;20038;-67
2022/09/18 07:48:53;;;;;;;4.47;0.82;;;11.30;99.90;;;;;;4962411;28;20054;-67
2022/09/18 07:51:18;;;;;;;8.77;1.30;;;11.30;99.90;;;;;;4962276;28;20572;-67
2022/09/18 07:53:45;;;;;;;9.38;1.52;;;11.20;99.90;;;;;;4977775;28;20054;-67
2022/09/18 07:56:11;;;;;;;7.13;1.13;;;11.20;99.90;;;;;;4978141;28;20042;-68
2022/09/18 07:58:37;;;;;;;8.23;1.33;;;11.20;99.90;;;;;;4978328;28;20049;-67
2022/09/18 08:01:04;;;;;;;6.95;1.20;;;11.20;99.90;;;;;;4978169;28;20085;-68
2022/09/18 08:03:30;;;;;;;10.93;1.10;;;11.10;99.90;;;;;;4978053;28;20050;-69
2022/09/18 08:05:56;;;;;;;6.85;1.13;;;11.10;99.90;;;;;;4978232;28;20042;-69
2022/09/18 08:08:21;;;;;;;8.85;1.15;;;11.10;99.90;;;;;;4978028;28;20406;-69
2022/09/18 08:10:47;;;;;;;6.20;0.88;;;11.10;99.90;;;;;;4977912;28;20034;-69
2022/09/18 08:13:13;;;;;;;5.30;1.10;;;11.10;99.90;;;;;;4977862;28;20038;-69
2022/09/18 08:15:41;;;;;;;7.20;1.17;;;11.10;99.90;;;;;;4977779;28;20407;-69
2022/09/18 08:18:07;;;;;;;6.20;1.05;;;11.10;99.90;;;;;;4977660;28;20097;-69
2022/09/18 08:20:34;;;;;;;7.72;0.88;;;11.10;99.90;;;;;;4977728;28;20050;-69
2022/09/18 08:23:04;;;;;;;8.60;0.98;;;11.10;99.90;;;;;;4977693;28;20042;-69
2022/09/18 08:25:30;;;;;;;6.15;1.15;;;11.10;99.90;;;;;;4977635;28;20046;-69
2022/09/18 08:28:04;;;;;;;6.40;1.20;;;11.20;99.90;;;;;;4977549;28;20061;-69
2022/09/18 08:30:30;;;;;;;7.95;0.70;;;11.20;99.90;;;;;;4977840;28;20050;-69
2022/09/18 08:33:00;;;;;;;3.65;0.68;;;11.20;99.90;;;;;;4994923;28;20399;-69
2022/09/18 08:35:27;;;;;;;6.68;1.27;;;11.30;99.90;;;;;;4977704;28;20407;-69
2022/09/18 08:37:52;;;;;;;5.32;0.70;;;11.30;99.90;;;;;;4977448;28;20048;-69
2022/09/18 08:40:21;;;;;;;6.40;0.95;;;11.40;99.90;;;;;;4977366;28;20077;-69
2022/09/18 08:43:02;;;;;;;4.85;0.73;;;11.40;99.90;;;;;;4977543;28;20180;-69
2022/09/18 08:45:57;;;;;;;6.40;0.80;;;11.40;99.90;;;;;;4977637;28;20038;-69
2022/09/18 08:48:30;;;;;;;6.20;0.98;;;11.40;99.90;;;;;;4977810;28;20084;-69
2022/09/18 08:51:02;;;;;;;9.20;0.80;;;11.40;99.90;;;;;;4977310;28;20403;-69
2022/09/18 08:53:39;;;;;;;5.95;0.80;;;11.50;99.90;;;;;;4977164;28;20038;-69
2022/09/18 08:56:28;;;;;;;6.78;1.00;;;11.50;99.90;;;;;;4977086;28;20049;-69
2022/09/18 08:59:02;;;;;;;10.40;1.42;;;11.60;99.90;;;;;;4977020;28;20046;-69
2022/09/18 09:01:39;;;;;;;3.83;0.70;;;11.60;99.90;;;;;;4977090;28;20042;-69
2022/09/18 09:04:18;;;;;;;7.35;0.93;;;11.60;99.90;;;;;;4977236;28;20518;-69
2022/09/18 09:07:01;;;;;;;5.60;0.80;;;11.60;99.90;;;;;;4977174;28;20059;-69
2022/09/18 09:10:19;;;;;;;7.03;1.38;;;11.60;99.90;;;;;;4960834;28;20038;-69
2022/09/18 09:12:55;;;;;;;9.65;1.10;;;11.70;99.90;;;;;;4909259;28;20063;-69
2022/09/18 09:15:38;;;;;;;5.30;0.77;;;11.60;99.90;;;;;;4976850;28;20085;-69
2022/09/18 09:18:19;;;;;;;5.93;0.70;;;11.70;99.90;;;;;;4976907;28;20046;-69
2022/09/18 09:20:50;;;;;;;9.68;1.58;;;11.70;99.90;;;;;;4976821;28;20064;-69
2022/09/18 09:23:49;;;;;;;7.38;0.90;;;11.80;99.90;;;;;;4976697;28;20122;-69
2022/09/18 09:26:21;;;;;;;5.30;0.70;;;11.80;99.90;;;;;;4976920;28;20510;-69
2022/09/18 09:29:14;;;;;;;5.78;0.80;;;11.80;99.90;;;;;;4976887;28;20050;-69
2022/09/18 09:31:44;;;;;;;10.40;0.85;;;11.80;99.90;;;;;;4994018;28;20462;-69
2022/09/18 09:34:26;;;;;;;5.30;1.10;;;11.80;99.90;;;;;;4976533;28;20553;-69
2022/09/18 09:36:55;;;;;;;3.70;0.88;;;11.90;99.90;;;;;;4977297;28;20042;-69
2022/09/18 09:39:40;;;;;;;8.30;0.93;;;11.90;99.90;;;;;;4976496;28;20486;-69
2022/09/18 09:42:22;;;;;;;8.52;1.10;;;11.90;99.90;;;;;;4976446;28;20557;-69
2022/09/18 09:44:53;;;;;;;3.08;0.57;;;11.90;99.90;;;;;;4976495;28;20049;-69
2022/09/18 09:48:17;;;;;;;8.23;1.02;;;11.90;99.90;;;;;;4976247;28;20430;-68
2022/09/18 09:50:52;;;;;;;9.98;1.10;;;11.90;99.90;;;;;;4920302;28;20108;-69
2022/09/18 09:53:18;;;;;;;5.43;0.98;;;11.90;99.90;;;;;;4976321;28;20088;-69
2022/09/18 09:56:18;;;;;;;6.80;0.90;;;11.90;99.90;;;;;;4976562;28;20053;-69
2022/09/18 09:58:56;;;;;;;5.57;0.93;;;12.00;99.90;;;;;;4976244;28;20053;-69
2022/09/18 10:01:37;;;;;;;9.50;1.05;;;11.90;99.90;;;;;;4976248;28;20054;-69
2022/09/18 10:04:14;;;;;;;5.55;1.10;;;12.00;99.90;;;;;;4976222;28;20142;-69
2022/09/18 10:06:48;;;;;;;9.95;1.33;;;12.00;99.90;;;;;;4960282;28;20038;-69
2022/09/18 10:09:30;;;;;;;4.82;0.80;;;12.00;99.90;;;;;;4976471;28;20050;-69
2022/09/18 10:12:10;;;;;;;6.72;1.17;;;12.00;99.90;;;;;;4976210;28;20049;-69
2022/09/18 10:14:40;;;;;;;7.90;1.38;;;12.00;99.90;;;;;;4976123;28;20038;-69
2022/09/18 10:17:10;;;;;;;7.15;1.25;;;12.00;99.90;;;;;;4979962;28;20061;-69
2022/09/18 10:19:39;;;;;;;4.55;1.10;;;12.00;99.90;;;;;;4979960;28;20121;-69
2022/09/18 10:22:08;;;;;;;6.55;1.00;;;12.00;99.90;;;;;;4980224;28;20518;-69
2022/09/18 10:25:15;;;;;;;7.30;0.90;;;12.00;99.90;;;;;;4979980;28;20043;-69
2022/09/18 10:27:41;;;;;;;6.38;1.00;;;12.00;99.90;;;;;;4979860;28;20479;-69
2022/09/18 10:30:12;;;;;;;6.82;0.98;;;12.00;99.90;;;;;;4979897;28;20049;-69
2022/09/18 10:32:41;;;;;;;8.93;0.80;;;12.10;99.90;;;;;;4979766;28;20057;-69
2022/09/18 10:35:25;;;;;;;8.05;0.85;;;12.00;99.90;;;;;;4963604;28;20046;-69
2022/09/18 10:37:51;;;;;;;7.38;0.98;;;12.00;99.90;;;;;;4980755;28;20046;-69
2022/09/18 10:40:38;;;;;;;6.30;0.90;;;11.90;99.90;;;;;;4979712;28;20388;-69
2022/09/18 10:43:06;;;;;;;4.93;0.63;;;11.90;99.90;;;;;;4979685;28;20034;-69
2022/09/18 10:45:40;;;;;;;6.53;1.15;;;12.00;99.90;;;;;;4979472;28;20443;-70
2022/09/18 10:48:35;;;;;;;5.95;0.93;;;12.00;99.90;;;;;;4979760;28;20045;-69
2022/09/18 10:51:02;;;;;;;3.67;0.60;;;12.00;99.90;;;;;;4883743;29;20131;-68
2022/09/18 10:53:30;;;;;;;6.00;0.80;;;12.00;99.90;;;;;;4883680;29;20067;-68
2022/09/18 10:56:03;;;;;;;3.30;0.90;;;12.00;99.90;;;;;;4883318;29;20116;-68
2022/09/18 10:58:30;;;;;;;;;;;12.00;99.90;;;;;;4883727;29;20059;-68
2022/09/18 11:01:06;;;;;;;5.35;1.13;;;12.00;99.90;;;;;;4883310;29;19951;-68
2022/09/18 11:03:46;;;;;;;5.40;1.00;;;12.00;99.90;;;;;;4883261;29;20052;-68
2022/09/18 11:06:22;;;;;;;7.18;1.25;;;12.00;99.90;;;;;;4883175;29;20053;-68
2022/09/18 11:08:58;;;;;;;7.40;1.30;;;12.00;99.90;;;;;;4883650;29;20064;-68
2022/09/18 11:11:33;;;;;;;8.18;1.02;;;12.00;99.90;;;;;;4883090;29;20052;-68
2022/09/18 11:14:15;;;;;;;6.85;1.00;;;12.00;99.90;;;;;;4883136;29;20051;-68
2022/09/18 11:16:47;;;;;;;8.65;1.25;;;12.00;99.90;;;;;;4882868;29;20044;-69
2022/09/18 11:19:22;;;;;;;8.35;1.20;;;12.00;99.90;;;;;;4882804;29;20125;-69
2022/09/18 11:21:50;;;;;;;10.98;1.63;;;12.00;99.90;;;;;;4883402;29;20100;-69
2022/09/18 11:24:37;;;;;;;10.18;1.23;;;12.00;99.90;;;;;;4882861;29;20123;-69
2022/09/18 11:27:15;;;;;;;5.40;0.95;;;12.10;99.90;;;;;;4915855;28;20054;-70
2022/09/18 11:29:41;;;;;;;6.70;0.88;;;12.10;99.90;;;;;;4978841;28;20047;-71
2022/09/18 11:32:26;;;;;;;10.60;1.80;;;12.20;99.90;;;;;;4978755;28;20406;-71
2022/09/18 11:35:03;;;;;;;6.95;1.17;;;12.20;99.90;;;;;;4978719;28;20053;-71
2022/09/18 11:37:38;;;;;;;10.55;1.13;;;12.30;99.90;;;;;;4978588;28;20089;-71
2022/09/18 11:40:13;;;;;;;12.45;1.80;;;12.40;99.90;;;;;;4978596;28;20042;-71
2022/09/18 11:42:42;;;;;;;8.90;1.50;;;12.40;99.90;;;;;;4979116;28;20463;-71
2022/09/18 11:45:39;;;;;;;13.75;1.77;;;12.40;99.90;;;;;;4962427;28;20491;-71
2022/09/18 11:48:35;;;;;;;10.65;1.40;;;12.40;99.90;;;;;;4978327;28;20084;-71
2022/09/18 11:51:04;;;;;;;8.90;1.50;;;12.40;99.90;;;;;;4945016;28;20514;-71
2022/09/18 11:53:54;;;;;;;10.65;1.45;;;12.40;99.90;;;;;;4962276;28;20038;-71
2022/09/18 11:56:40;;;;;;;12.80;1.60;;;12.50;99.90;;;;;;4978263;28;20044;-71
2022/09/18 11:59:37;;;;;;;9.35;1.52;;;12.60;99.90;;;;;;4978210;28;20081;-71
2022/09/18 12:02:27;;;;;;;8.88;1.25;;;12.70;99.90;;;;;;4978267;28;20117;-71
2022/09/18 12:05:06;;;;;;;11.30;1.33;;;12.80;99.90;;;;;;4978160;28;20038;-71
2022/09/18 12:07:40;;;;;;;12.23;1.65;;;12.90;99.90;;;;;;4978057;28;20070;-71
2022/09/18 12:10:23;;;;;;;6.97;1.15;;;13.00;99.90;;;;;;4978113;28;20053;-71
2022/09/18 12:13:15;;;;;;;;;;;13.20;99.90;;;;;;4978769;28;20050;-71
2022/09/18 12:15:47;;;;;;;9.95;1.38;;;13.10;99.90;;;;;;4948655;28;20003;-71
2022/09/18 12:18:19;;;;;;;11.13;1.55;;;13.10;99.90;;;;;;4978047;28;20038;-71
2022/09/18 12:20:50;;;;;;;10.88;1.60;;;13.20;99.90;;;;;;4977872;28;20042;-71
2022/09/18 12:23:21;;;;;;;6.97;1.35;;;13.20;99.90;;;;;;4977845;28;20038;-71
2022/09/18 12:25:58;;;;;;;7.47;1.88;;;13.30;99.90;;;;;;4977788;28;20035;-70
2022/09/18 12:28:50;;;;;;;8.70;1.38;;;13.30;99.90;;;;;;4977671;28;20486;-70
2022/09/18 12:31:21;;;;;;;8.90;1.20;;;13.30;99.90;;;;;;4977582;28;20045;-70
2022/09/18 12:34:01;;;;;;;10.60;1.67;;;13.30;99.90;;;;;;4977699;28;20081;-70
2022/09/18 12:36:37;;;;;;;8.15;1.40;;;13.40;99.90;;;;;;4977698;28;20046;-70
2022/09/18 12:39:21;;;;;;;10.73;1.35;;;13.40;99.90;;;;;;4961039;28;20050;-70
2022/09/18 12:42:01;;;;;;;9.05;1.50;;;13.40;99.90;;;;;;4977413;28;20034;-70
2022/09/18 12:44:45;;;;;;;9.43;1.55;;;13.40;99.90;;;;;;4961296;28;20399;-70
2022/09/18 12:47:43;;;;;;;10.63;1.40;;;13.40;99.90;;;;;;4961170;28;20126;-71
2022/09/18 12:50:37;;;;;;;8.50;1.63;;;13.40;99.90;;;;;;4972460;28;20057;-70
2022/09/18 12:53:24;;;;;;;10.85;1.58;;;13.40;99.90;;;;;;4977212;28;20520;-70
2022/09/18 12:56:11;;;;;;;10.52;1.30;;;13.50;99.90;;;;;;4977179;28;20450;-70
2022/09/18 12:58:47;;;;;;;7.95;1.38;;;13.50;99.90;;;;;;4977116;28;20051;-70
2022/09/18 13:01:32;;;;;;;12.73;1.50;;;13.40;99.90;;;;;;4977033;28;20038;-70
2022/09/18 13:04:09;;;;;;;9.77;1.38;;;13.40;99.90;;;;;;4977042;28;20042;-70
2022/09/18 13:06:52;;;;;;;7.43;1.25;;;13.40;99.90;;;;;;4977045;28;20045;-70
2022/09/18 13:09:28;;;;;;;9.13;1.20;;;13.40;99.90;;;;;;4977292;28;20048;-70
2022/09/18 13:12:04;;;;;;;8.80;1.30;;;13.40;99.90;;;;;;4977214;28;20053;-70